createdAt,value
2019-05-01T00:01:25.386Z,8.23
2019-05-01T00:07:01.591Z,8.20
2019-05-01T00:12:41.943Z,7.95
2019-05-01T00:18:41.246Z,7.98
2019-05-01T00:21:10.669Z,7.92
2019-05-01T00:23:40.011Z,7.86
2019-05-01T00:26:09.366Z,7.93
2019-05-01T00:28:38.689Z,7.93
2019-05-01T00:31:08.026Z,7.86
2019-05-01T00:33:37.392Z,7.76
2019-05-01T00:36:06.728Z,7.84
2019-05-01T00:38:36.070Z,7.76
2019-05-01T00:41:05.418Z,7.73
2019-05-01T00:43:34.752Z,7.79
2019-05-01T00:46:05.068Z,7.72
2019-05-01T00:48:34.403Z,7.65
2019-05-01T00:51:03.742Z,7.62
2019-05-01T00:53:33.088Z,7.41
2019-05-01T00:56:15.972Z,7.46
2019-05-01T00:59:03.108Z,7.47
2019-05-01T01:01:43.100Z,7.51
2019-05-01T01:04:14.088Z,7.40
2019-05-01T01:06:43.425Z,7.42
2019-05-01T01:09:13.718Z,7.48
2019-05-01T01:11:43.048Z,7.54
2019-05-01T01:14:12.387Z,7.37
2019-05-01T01:16:41.733Z,7.42
2019-05-01T01:19:11.067Z,7.44
2019-05-01T01:21:41.168Z,7.43
2019-05-01T01:24:10.810Z,7.37
2019-05-01T01:26:40.486Z,7.41
2019-05-01T01:29:10.702Z,7.39
2019-05-01T01:31:40.104Z,7.35
2019-05-01T01:34:09.511Z,7.29
2019-05-01T01:36:38.859Z,7.19
2019-05-01T01:39:08.263Z,7.18
2019-05-01T01:41:37.666Z,7.24
2019-05-01T01:44:09.091Z,7.15
2019-05-01T01:46:40.232Z,7.15
2019-05-01T01:49:09.712Z,7.17
2019-05-01T01:51:39.191Z,6.96
2019-05-01T01:54:08.597Z,6.97
2019-05-01T01:56:38.282Z,7.16
2019-05-01T01:59:07.862Z,7.15
2019-05-01T02:01:55.220Z,7.08
2019-05-01T02:04:29.169Z,7.11
2019-05-01T02:06:58.506Z,6.97
2019-05-01T02:09:28.488Z,6.90
2019-05-01T02:11:58.000Z,6.88
2019-05-01T02:14:27.476Z,6.91
2019-05-01T02:16:56.826Z,6.93
2019-05-01T02:19:26.232Z,6.99
2019-05-01T02:21:55.592Z,6.99
2019-05-01T02:24:24.951Z,6.96
2019-05-01T02:26:55.998Z,6.93
2019-05-01T02:29:29.935Z,6.80
2019-05-01T02:32:00.314Z,6.64
2019-05-01T02:34:31.002Z,6.75
2019-05-01T02:37:03.249Z,6.78
2019-05-01T02:39:34.949Z,6.77
2019-05-01T02:42:04.832Z,6.68
2019-05-01T02:44:37.263Z,6.69
2019-05-01T02:47:09.394Z,6.73
2019-05-01T02:49:44.610Z,6.67
2019-05-01T02:52:14.463Z,6.66
2019-05-01T02:54:47.489Z,6.72
2019-05-01T02:57:20.491Z,6.70
2019-05-01T02:59:52.690Z,6.66
2019-05-01T03:02:24.888Z,6.66
2019-05-01T03:04:56.065Z,6.58
2019-05-01T03:07:27.886Z,6.51
2019-05-01T03:09:57.377Z,6.47
2019-05-01T03:12:29.765Z,6.47
2019-05-01T03:15:01.809Z,6.37
2019-05-01T03:17:36.763Z,6.43
2019-05-01T03:20:14.757Z,6.38
2019-05-01T03:22:45.812Z,6.33
2019-05-01T03:25:15.442Z,6.37
2019-05-01T03:27:44.922Z,6.31
2019-05-01T03:30:14.550Z,6.28
2019-05-01T03:32:43.940Z,6.27
2019-05-01T03:35:13.274Z,6.43
2019-05-01T03:37:42.691Z,6.37
2019-05-01T03:40:13.833Z,6.35
2019-05-01T03:42:43.432Z,6.34
2019-05-01T03:45:12.917Z,6.30
2019-05-01T03:47:42.425Z,6.26
2019-05-01T03:50:12.058Z,6.22
2019-05-01T03:52:41.811Z,6.19
2019-05-01T03:55:11.490Z,6.28
2019-05-01T03:57:42.869Z,6.23
2019-05-01T04:00:15.021Z,6.18
2019-05-01T04:03:02.995Z,6.13
2019-05-01T04:05:32.345Z,6.20
2019-05-01T04:08:01.849Z,6.21
2019-05-01T04:10:31.478Z,6.19
2019-05-01T04:13:00.890Z,6.16
2019-05-01T04:15:30.312Z,6.09
2019-05-01T04:18:01.307Z,6.08
2019-05-01T04:20:30.723Z,6.05
2019-05-01T04:23:00.519Z,5.94
2019-05-01T04:25:30.001Z,6.01
2019-05-01T04:28:01.526Z,6.01
2019-05-01T04:30:49.173Z,6.10
2019-05-01T04:33:20.229Z,6.24
2019-05-01T04:35:51.198Z,6.32
2019-05-01T04:38:20.552Z,6.25
2019-05-01T04:40:49.973Z,6.32
2019-05-01T04:43:21.424Z,6.37
2019-05-01T04:45:51.913Z,6.44
2019-05-01T04:48:22.399Z,6.40
2019-05-01T04:50:52.406Z,6.47
2019-05-01T04:53:21.937Z,6.67
2019-05-01T04:55:51.334Z,6.64
2019-05-01T04:58:20.906Z,6.74
2019-05-01T05:00:50.704Z,6.92
2019-05-01T05:03:22.014Z,6.87
2019-05-01T05:05:51.440Z,6.88
2019-05-01T05:08:20.864Z,7.00
2019-05-01T05:10:51.989Z,7.02
2019-05-01T05:13:26.398Z,7.04
2019-05-01T05:16:03.659Z,7.10
2019-05-01T05:18:34.038Z,7.09
2019-05-01T05:21:03.963Z,7.24
2019-05-01T05:23:33.973Z,7.14
2019-05-01T05:26:04.164Z,7.26
2019-05-01T05:28:34.246Z,7.46
2019-05-01T05:31:04.685Z,7.46
2019-05-01T05:33:36.030Z,7.50
2019-05-01T05:36:07.140Z,7.41
2019-05-01T05:38:45.317Z,7.50
2019-05-01T05:41:15.593Z,7.57
2019-05-01T05:43:45.015Z,7.73
2019-05-01T05:46:14.918Z,7.80
2019-05-01T05:48:44.334Z,8.04
2019-05-01T05:51:19.053Z,7.93
2019-05-01T05:53:55.837Z,8.07
2019-05-01T05:56:30.044Z,8.13
2019-05-01T05:59:04.117Z,8.17
2019-05-01T06:01:37.123Z,8.45
2019-05-01T06:04:25.672Z,8.39
2019-05-01T06:07:13.796Z,8.49
2019-05-01T06:09:55.200Z,8.41
2019-05-01T06:12:29.429Z,8.77
2019-05-01T06:15:06.102Z,8.95
2019-05-01T06:17:41.062Z,8.91
2019-05-01T06:20:12.112Z,8.87
2019-05-01T06:23:01.745Z,8.87
2019-05-01T06:25:35.946Z,9.02
2019-05-01T06:28:05.734Z,9.33
2019-05-01T06:30:35.727Z,9.20
2019-05-01T06:33:09.530Z,9.13
2019-05-01T06:35:41.567Z,9.49
2019-05-01T06:38:31.598Z,9.44
2019-05-01T06:41:06.504Z,9.65
2019-05-01T06:43:57.109Z,9.81
2019-05-01T06:50:27.116Z,9.86
2019-05-01T06:56:30.913Z,9.97
2019-05-01T06:59:11.018Z,9.97
2019-05-01T07:05:03.137Z,9.78
2019-05-01T07:16:17.178Z,10.39
2019-05-01T07:18:46.585Z,10.39
2019-05-01T07:21:15.921Z,10.37
2019-05-01T07:24:28.058Z,10.70
2019-05-01T07:27:01.723Z,10.80
2019-05-01T07:32:41.163Z,11.15
2019-05-01T07:35:09.143Z,11.39
2019-05-01T07:38:18.627Z,11.11
2019-05-01T07:40:48.213Z,11.03
2019-05-01T07:43:36.808Z,11.24
2019-05-01T07:49:01.888Z,11.71
2019-05-01T07:51:31.359Z,11.98
2019-05-01T07:54:21.502Z,12.08
2019-05-01T07:56:50.989Z,12.19
2019-05-01T07:59:22.859Z,12.31
2019-05-01T08:04:52.775Z,12.64
2019-05-01T08:07:22.116Z,12.71
2019-05-01T08:09:51.599Z,12.91
2019-05-01T08:12:23.919Z,12.86
2019-05-01T08:19:04.334Z,13.02
2019-05-01T08:22:01.761Z,13.25
2019-05-01T08:24:35.739Z,13.13
2019-05-01T08:30:48.067Z,13.63
2019-05-01T08:33:44.824Z,13.57
2019-05-01T08:36:42.606Z,13.73
2019-05-01T08:39:27.699Z,13.82
2019-05-01T08:41:57.134Z,13.82
2019-05-01T08:45:06.776Z,14.02
2019-05-01T08:50:40.828Z,14.40
2019-05-01T08:53:10.168Z,14.40
2019-05-01T08:55:51.704Z,14.70
2019-05-01T08:58:21.037Z,14.70
2019-05-01T09:01:02.286Z,14.59
2019-05-01T09:03:43.605Z,14.89
2019-05-01T09:06:12.949Z,15.22
2019-05-01T09:08:42.281Z,15.22
2019-05-01T09:11:11.550Z,14.95
2019-05-01T09:13:40.895Z,15.15
2019-05-01T09:16:10.228Z,15.24
2019-05-01T09:18:39.560Z,15.14
2019-05-01T09:21:08.906Z,15.35
2019-05-01T09:23:38.239Z,15.35
2019-05-01T09:26:26.697Z,15.46
2019-05-01T09:29:16.139Z,15.91
2019-05-01T09:31:52.077Z,15.91
2019-05-01T09:34:21.413Z,16.20
2019-05-01T09:36:50.820Z,16.17
2019-05-01T09:42:22.856Z,16.42
2019-05-01T09:44:51.923Z,16.51
2019-05-01T09:50:30.423Z,16.79
2019-05-01T09:53:19.970Z,16.59
2019-05-01T09:56:09.162Z,16.78
2019-05-01T09:58:38.482Z,16.66
2019-05-01T10:01:07.895Z,16.38
2019-05-01T10:03:37.229Z,16.46
2019-05-01T10:06:06.567Z,16.66
2019-05-01T10:08:39.906Z,16.95
2019-05-01T10:11:12.184Z,17.07
2019-05-01T10:13:41.604Z,17.54
2019-05-01T10:16:11.076Z,17.62
2019-05-01T10:18:52.154Z,17.83
2019-05-01T10:21:22.368Z,17.49
2019-05-01T10:24:01.960Z,17.51
2019-05-01T10:30:01.574Z,16.98
2019-05-01T10:35:51.901Z,16.78
2019-05-01T10:38:21.232Z,16.75
2019-05-01T10:40:50.568Z,17.10
2019-05-01T10:43:19.923Z,17.18
2019-05-01T10:45:49.256Z,17.56
2019-05-01T10:48:18.651Z,17.10
2019-05-01T10:50:48.036Z,17.38
2019-05-01T10:53:17.335Z,17.26
2019-05-01T10:55:46.673Z,17.30
2019-05-01T10:58:17.950Z,17.24
2019-05-01T11:01:46.046Z,17.46
2019-05-01T11:07:09.856Z,17.36
2019-05-01T11:09:39.224Z,17.56
2019-05-01T11:12:08.565Z,17.65
2019-05-01T11:14:37.895Z,17.28
2019-05-01T11:17:07.388Z,17.46
2019-05-01T11:19:36.726Z,17.64
2019-05-01T11:22:06.135Z,17.46
2019-05-01T11:24:47.544Z,17.37
2019-05-01T11:27:16.877Z,17.20
2019-05-01T11:29:46.219Z,17.40
2019-05-01T11:32:34.672Z,16.95
2019-05-01T11:38:56.985Z,17.72
2019-05-01T11:44:06.424Z,18.11
2019-05-01T11:46:35.755Z,17.88
2019-05-01T11:49:05.279Z,17.75
2019-05-01T11:51:34.633Z,17.42
2019-05-01T11:54:04.133Z,17.64
2019-05-01T11:56:33.473Z,17.78
2019-05-01T11:59:03.129Z,17.63
2019-05-01T12:01:32.509Z,18.01
2019-05-01T12:04:01.810Z,17.95
2019-05-01T12:06:31.154Z,18.09
2019-05-01T12:09:00.483Z,17.87
2019-05-01T12:14:10.067Z,18.31
2019-05-01T12:16:58.516Z,18.49
2019-05-01T12:19:46.978Z,18.29
2019-05-01T12:22:23.716Z,18.16
2019-05-01T12:24:53.065Z,18.40
2019-05-01T12:27:22.396Z,18.60
2019-05-01T12:29:51.736Z,18.60
2019-05-01T12:32:21.081Z,18.64
2019-05-01T12:34:50.419Z,18.48
2019-05-01T12:37:38.889Z,18.26
2019-05-01T12:43:12.287Z,18.18
2019-05-01T12:48:42.763Z,18.27
2019-05-01T12:51:12.208Z,18.34
2019-05-01T12:54:00.679Z,18.46
2019-05-01T12:59:10.309Z,18.68
2019-05-01T13:04:28.029Z,18.95
2019-05-01T13:07:18.153Z,18.98
2019-05-01T13:09:47.495Z,19.05
2019-05-01T13:12:16.831Z,18.97
2019-05-01T13:14:46.176Z,18.79
2019-05-01T13:17:15.525Z,19.07
2019-05-01T13:19:44.905Z,19.05
2019-05-01T13:22:14.211Z,18.84
2019-05-01T13:25:02.682Z,18.87
2019-05-01T13:30:52.691Z,18.86
2019-05-01T13:33:22.108Z,19.17
2019-05-01T13:35:51.490Z,19.10
2019-05-01T13:38:20.915Z,19.30
2019-05-01T13:40:50.494Z,19.11
2019-05-01T13:43:19.839Z,18.89
2019-05-01T13:45:49.168Z,19.13
2019-05-01T13:48:18.573Z,18.97
2019-05-01T13:50:47.913Z,19.26
2019-05-01T13:53:22.555Z,19.08
2019-05-01T13:55:51.909Z,19.10
2019-05-01T13:58:21.497Z,19.13
2019-05-01T14:00:50.835Z,19.09
2019-05-01T14:03:20.416Z,18.88
2019-05-01T14:05:49.758Z,19.19
2019-05-01T14:08:19.198Z,19.74
2019-05-01T14:10:48.519Z,19.89
2019-05-01T14:13:17.862Z,19.96
2019-05-01T14:15:47.202Z,19.93
2019-05-01T14:18:16.534Z,19.63
2019-05-01T14:28:45.182Z,19.70
2019-05-01T14:31:14.517Z,19.82
2019-05-01T14:33:43.878Z,19.60
2019-05-01T14:36:13.576Z,19.54
2019-05-01T14:38:42.910Z,19.40
2019-05-01T14:41:12.256Z,19.14
2019-05-01T14:43:41.619Z,19.32
2019-05-01T14:46:10.956Z,19.64
2019-05-01T14:48:40.298Z,19.53
2019-05-01T14:51:09.633Z,19.68
2019-05-01T14:53:39.084Z,19.87
2019-05-01T14:56:08.416Z,19.70
2019-05-01T14:58:37.779Z,19.98
2019-05-01T15:01:07.195Z,19.80
2019-05-01T15:03:36.523Z,20.21
2019-05-01T15:06:25.196Z,20.57
2019-05-01T15:08:54.532Z,20.56
2019-05-01T15:11:23.870Z,20.07
2019-05-01T15:14:12.327Z,20.32
2019-05-01T15:17:00.768Z,19.69
2019-05-01T15:22:25.706Z,20.75
2019-05-01T15:24:55.054Z,20.50
2019-05-01T15:27:24.397Z,20.62
2019-05-01T15:29:53.732Z,20.71
2019-05-01T15:32:23.072Z,20.91
2019-05-01T15:34:52.476Z,21.30
2019-05-01T15:37:21.822Z,20.79
2019-05-01T15:45:36.736Z,20.21
2019-05-01T15:48:06.086Z,20.35
2019-05-01T15:50:54.508Z,20.65
2019-05-01T15:53:23.866Z,20.49
2019-05-01T15:55:53.228Z,20.43
2019-05-01T15:58:22.562Z,20.22
2019-05-01T16:00:51.923Z,20.60
2019-05-01T16:03:21.262Z,20.67
2019-05-01T16:05:50.606Z,20.98
2019-05-01T16:08:19.959Z,20.60
2019-05-01T16:13:28.381Z,20.87
2019-05-01T16:15:57.719Z,20.73
2019-05-01T16:18:27.060Z,20.45
2019-05-01T16:20:56.397Z,20.52
2019-05-01T16:23:25.731Z,20.02
2019-05-01T16:25:55.084Z,19.80
2019-05-01T16:28:24.409Z,19.54
2019-05-01T16:30:53.757Z,19.51
2019-05-01T16:33:23.091Z,19.38
2019-05-01T16:35:52.660Z,19.76
2019-05-01T16:38:41.115Z,19.61
2019-05-01T16:44:19.560Z,18.98
2019-05-01T16:46:48.895Z,18.92
2019-05-01T16:49:18.242Z,18.76
2019-05-01T16:51:47.646Z,18.70
2019-05-01T16:54:16.975Z,18.73
2019-05-01T16:56:46.347Z,18.84
2019-05-01T16:59:15.659Z,18.92
2019-05-01T17:02:04.185Z,18.90
2019-05-01T17:04:52.633Z,18.83
2019-05-01T17:07:41.103Z,18.97
2019-05-01T17:13:44.805Z,18.73
2019-05-01T17:16:14.207Z,18.35
2019-05-01T17:18:43.559Z,18.20
2019-05-01T17:21:12.906Z,18.21
2019-05-01T17:23:42.240Z,17.90
2019-05-01T17:26:11.582Z,17.77
2019-05-01T17:28:40.912Z,17.81
2019-05-01T17:31:10.691Z,17.57
2019-05-01T17:33:40.089Z,17.50
2019-05-01T17:36:09.491Z,17.50
2019-05-01T17:38:48.982Z,17.57
2019-05-01T17:41:22.619Z,17.48
2019-05-01T17:44:14.850Z,17.56
2019-05-01T17:46:46.963Z,17.82
2019-05-01T17:49:20.703Z,17.48
2019-05-01T17:51:50.038Z,17.49
2019-05-01T17:54:19.370Z,17.45
2019-05-01T18:03:05.368Z,17.22
2019-05-01T18:05:56.220Z,17.06
2019-05-01T18:11:47.312Z,16.84
2019-05-01T18:14:41.611Z,16.71
2019-05-01T18:17:10.951Z,16.54
2019-05-01T18:19:40.294Z,16.49
2019-05-01T18:28:29.874Z,16.05
2019-05-01T18:33:44.856Z,15.70
2019-05-01T18:36:14.188Z,15.62
2019-05-01T18:41:43.139Z,15.65
2019-05-01T18:44:12.489Z,15.52
2019-05-01T18:46:41.822Z,15.87
2019-05-01T18:52:13.419Z,15.72
2019-05-01T18:54:42.753Z,15.47
2019-05-01T18:57:17.724Z,15.37
2019-05-01T18:59:59.405Z,15.49
2019-05-01T19:02:28.756Z,15.36
2019-05-01T19:05:17.433Z,15.26
2019-05-01T19:07:46.847Z,14.88
2019-05-01T19:10:16.191Z,14.86
2019-05-01T19:12:45.529Z,14.72
2019-05-01T19:15:14.876Z,14.60
2019-05-01T19:17:44.232Z,14.39
2019-05-01T19:20:13.660Z,14.54
2019-05-01T19:22:42.961Z,14.47
2019-05-01T19:25:23.971Z,14.17
2019-05-01T19:28:07.149Z,14.11
2019-05-01T19:31:16.408Z,14.11
2019-05-01T19:37:09.090Z,13.80
2019-05-01T19:39:43.797Z,13.80
2019-05-01T19:45:14.956Z,13.66
2019-05-01T19:48:03.656Z,13.61
2019-05-01T19:50:32.985Z,13.61
2019-05-01T19:53:02.445Z,13.50
2019-05-01T19:55:44.865Z,13.27
2019-05-01T19:58:26.930Z,13.20
2019-05-01T20:01:38.446Z,13.20
2019-05-01T20:04:16.814Z,13.05
2019-05-01T20:06:58.354Z,13.01
2019-05-01T20:09:27.683Z,12.89
2019-05-01T20:12:16.368Z,12.87
2019-05-01T20:14:45.799Z,12.87
2019-05-01T20:17:34.480Z,12.96
2019-05-01T20:23:35.799Z,13.12
2019-05-01T20:26:05.137Z,13.12
2019-05-01T20:28:34.484Z,12.98
2019-05-01T20:31:25.783Z,12.75
2019-05-01T20:34:00.237Z,12.75
2019-05-01T20:36:29.572Z,12.68
2019-05-01T20:39:11.536Z,12.80
2019-05-01T20:41:40.886Z,12.80
2019-05-01T20:44:10.216Z,12.58
2019-05-01T20:46:39.565Z,12.44
2019-05-01T20:49:08.909Z,12.58
2019-05-01T20:51:38.238Z,12.58
2019-05-01T20:54:07.751Z,12.51
2019-05-01T20:59:35.182Z,12.67
2019-05-01T21:02:09.640Z,12.67
2019-05-01T21:04:58.099Z,12.91
2019-05-01T21:11:06.024Z,12.89
2019-05-01T21:13:38.972Z,12.83
2019-05-01T21:16:08.320Z,12.62
2019-05-01T21:18:37.654Z,12.34
2019-05-01T21:21:07.344Z,12.30
2019-05-01T21:23:36.699Z,12.35
2019-05-01T21:26:06.038Z,12.12
2019-05-01T21:28:35.375Z,11.97
2019-05-01T21:31:04.721Z,11.79
2019-05-01T21:33:34.282Z,11.95
2019-05-01T21:36:13.940Z,11.93
2019-05-01T21:38:43.270Z,11.83
2019-05-01T21:41:12.604Z,11.79
2019-05-01T21:43:42.488Z,11.74
2019-05-01T21:46:33.937Z,11.62
2019-05-01T21:49:08.771Z,11.53
2019-05-01T21:51:42.380Z,11.59
2019-05-01T21:54:28.237Z,11.68
2019-05-01T21:56:57.808Z,11.70
2019-05-01T21:59:27.138Z,11.74
2019-05-01T22:01:56.579Z,11.82
2019-05-01T22:04:28.002Z,11.88
2019-05-01T22:07:02.568Z,11.81
2019-05-01T22:12:14.279Z,11.49
2019-05-01T22:23:59.131Z,11.31
2019-05-01T22:32:34.121Z,11.18
2019-05-01T22:35:14.749Z,11.00
2019-05-01T22:37:44.095Z,10.94
2019-05-01T22:43:14.990Z,10.92
2019-05-01T22:45:44.390Z,10.81
2019-05-01T22:48:13.768Z,10.67
2019-05-01T22:50:43.108Z,10.79
2019-05-01T22:53:13.331Z,10.75
2019-05-01T22:55:49.116Z,10.76
2019-05-01T22:58:18.425Z,10.70
2019-05-01T23:01:06.952Z,10.65
2019-05-01T23:03:55.401Z,10.67
2019-05-01T23:06:24.883Z,10.61
2019-05-01T23:08:54.210Z,10.64
2019-05-01T23:14:18.823Z,10.54
2019-05-01T23:22:43.420Z,10.63
2019-05-01T23:25:27.323Z,10.67
2019-05-01T23:27:50.073Z,10.64
2019-05-01T23:34:08.488Z,10.49
2019-05-01T23:36:37.819Z,10.32
2019-05-01T23:39:07.156Z,10.35
2019-05-01T23:41:45.672Z,10.41
2019-05-01T23:44:26.699Z,10.36
2019-05-01T23:46:56.039Z,10.22
2019-05-01T23:49:25.385Z,10.26
2019-05-01T23:51:58.641Z,10.28
2019-05-01T23:54:44.852Z,10.31
2019-05-01T23:57:14.894Z,10.28
